Time;durP1;ratioP1;P1;durP2;ratioP2;P2;SDS_P1;SDS_P2;PMS_P1;PMS_P2;Temp;Humidity;BMP_temperature;BMP_pressure;BME280_temperature;BME280_humidity;BME280_pressure;Samples;Min_cycle;Max_cycle;Signal;HPM_P1;HPM_P2
2021/12/27 00:00:14;;;;;;;3.70;3.60;;;;;;;5.68;100.00;95289.59;5132172;27;20556;-51
2021/12/27 00:02:43;;;;;;;2.83;2.53;;;;;;;5.72;100.00;95299.38;5133211;27;20454;-51
2021/12/27 00:05:12;;;;;;;10.50;5.90;;;;;;;5.17;100.00;95274.00;5133173;27;20926;-51
2021/12/27 00:07:41;;;;;;;4.13;3.40;;;;;;;5.28;100.00;95252.13;5133340;27;20838;-51
2021/12/27 00:10:10;;;;;;;4.87;4.13;;;;;;;5.70;100.00;95293.56;5133487;27;20483;-51
2021/12/27 00:12:39;;;;;;;18.33;4.20;;;;;;;5.55;100.00;95280.19;5132767;27;20435;-51
2021/12/27 00:15:10;;;;;;;2.93;2.83;;;;;;;5.06;100.00;95202.91;5132816;27;20423;-51
2021/12/27 00:17:39;;;;;;;3.03;2.70;;;;;;;5.86;100.00;95270.97;5132982;27;20595;-51
2021/12/27 00:20:08;;;;;;;4.03;3.93;;;;;;;5.87;100.00;95280.44;5132972;27;20525;-51
2021/12/27 00:22:37;;;;;;;5.37;1.70;;;;;;;5.90;100.00;95277.34;5132691;27;20506;-51
2021/12/27 00:25:06;;;;;;;13.90;4.70;;;;;;;5.52;100.00;95237.78;5132947;27;20419;-51
2021/12/27 00:27:35;;;;;;;3.60;3.47;;;;;;;5.87;100.00;95262.03;5132714;27;20474;-51
2021/12/27 00:30:05;;;;;;;4.90;4.60;;;;;;;5.37;100.00;95272.53;5132828;27;20422;-51
2021/12/27 00:32:37;;;;;;;8.17;7.57;;;;;;;4.62;100.00;95277.19;5132992;27;20437;-51
2021/12/27 00:35:05;;;;;;;5.80;4.77;;;;;;;4.39;100.00;95264.94;5133140;27;20438;-51
2021/12/27 00:37:34;;;;;;;5.70;5.40;;;;;;;3.93;100.00;95217.00;5132694;27;20458;-51
2021/12/27 00:40:04;;;;;;;6.43;6.10;;;;;;;4.42;100.00;95288.09;5132703;27;20514;-51
2021/12/27 00:42:32;;;;;;;4.80;4.40;;;;;;;4.93;100.00;95271.47;5132592;27;20509;-51
2021/12/27 00:45:00;;;;;;;6.40;3.90;;;;;;;4.51;100.00;95278.03;5132611;28;20926;-51
2021/12/27 00:47:29;;;;;;;2.00;1.90;;;;;;;4.93;100.00;95273.34;5133089;28;20481;-51
2021/12/27 00:49:59;;;;;;;8.20;4.03;;;;;;;5.05;100.00;95263.56;5134314;27;20849;-51
2021/12/27 00:52:27;;;;;;;0.60;0.60;;;;;;;5.17;100.00;95274.00;5136831;27;20479;-51
2021/12/27 00:54:55;;;;;;;1.40;1.40;;;;;;;5.17;100.00;95269.56;5136750;27;20509;-52
2021/12/27 00:57:24;;;;;;;1.80;1.80;;;;;;;5.32;100.00;95279.53;5136807;27;20465;-51
2021/12/27 00:59:52;;;;;;;2.70;2.50;;;;;;;4.96;100.00;95229.00;5136656;27;20480;-51
2021/12/27 01:02:21;;;;;;;3.87;3.77;;;;;;;4.97;100.00;95259.50;5137100;27;20506;-51
2021/12/27 01:04:49;;;;;;;0.90;0.90;;;;;;;4.48;100.00;95226.00;5136638;27;20422;-51
2021/12/27 01:07:19;;;;;;;6.63;2.20;;;;;;;5.04;100.00;95254.88;5137095;27;20454;-51
2021/12/27 01:10:02;;;;;;;2.60;2.43;;;;;;;4.54;100.00;95230.31;5136799;27;20421;-51
2021/12/27 01:12:35;;;;;;;2.07;1.97;;;;;;;5.04;100.00;95267.22;5137130;27;20463;-51
2021/12/27 01:15:33;;;;;;;2.30;2.20;;;;;;;5.25;100.00;95274.44;5136600;27;20461;-51
2021/12/27 01:18:00;;;;;;;6.37;5.90;;;;;;;5.20;100.00;95278.78;5136885;27;20440;-52
2021/12/27 01:20:29;;;;;;;2.20;2.17;;;;;;;5.25;100.00;95273.63;5136806;27;20853;-51
2021/12/27 01:22:58;;;;;;;4.13;2.93;;;;;;;5.22;100.00;95269.63;5136186;27;21041;-51
2021/12/27 01:25:27;;;;;;;2.73;2.63;;;;;;;5.14;100.00;95247.19;5136423;27;20522;-51
2021/12/27 01:27:55;;;;;;;4.60;4.40;;;;;;;5.36;100.00;95259.63;5136436;27;20526;-51
2021/12/27 01:30:24;;;;;;;0.97;0.97;;;;;;;5.53;100.00;95266.50;5135661;27;20934;-51
2021/12/27 01:32:56;;;;;;;9.00;8.57;;;;;;;5.43;100.00;95250.56;5136336;27;20419;-51
2021/12/27 01:35:26;;;;;;;3.93;3.63;;;;;;;5.14;100.00;95218.28;5135743;27;20438;-51
2021/12/27 01:37:55;;;;;;;4.30;4.10;;;;;;;5.31;100.00;95259.56;5136559;27;20442;-51
2021/12/27 01:40:28;;;;;;;5.97;5.67;;;;;;;5.10;100.00;95261.81;5136206;27;20486;-51
2021/12/27 01:43:06;;;;;;;3.97;3.87;;;;;;;5.26;100.00;95244.50;5136052;27;20470;-51
2021/12/27 01:45:36;;;;;;;1.97;1.87;;;;;;;5.35;100.00;95237.00;5135988;27;20426;-51
2021/12/27 01:48:07;;;;;;;4.27;3.83;;;;;;;4.47;100.00;95075.66;5136024;27;20414;-51
2021/12/27 01:50:37;;;;;;;1.13;1.13;;;;;;;4.78;100.00;95174.06;5135981;27;20505;-51
2021/12/27 01:53:06;;;;;;;4.00;2.87;;;;;;;5.37;100.00;95259.38;5135705;27;20453;-51
2021/12/27 01:55:36;;;;;;;1.43;1.43;;;;;;;5.20;100.00;95231.50;5135916;27;20510;-51
2021/12/27 01:58:05;;;;;;;2.60;2.20;;;;;;;5.19;100.00;95224.66;5136146;27;20503;-52
2021/12/27 02:00:35;;;;;;;4.97;3.80;;;;;;;5.28;100.00;95208.28;5135268;27;20913;-51
2021/12/27 02:03:05;;;;;;;3.37;3.27;;;;;;;5.61;100.00;95220.59;5135955;27;20561;-51
2021/12/27 02:05:34;;;;;;;6.17;3.33;;;;;;;3.54;100.00;95004.44;5135901;27;20954;-51
2021/12/27 02:08:03;;;;;;;3.60;3.43;;;;;;;4.85;100.00;95211.47;5135663;27;20860;-51
2021/12/27 02:10:32;;;;;;;5.27;4.73;;;;;;;5.19;100.00;95216.78;5135464;27;20861;-52
2021/12/27 02:13:02;;;;;;;2.10;2.00;;;;;;;5.41;100.00;95192.19;5135613;27;20453;-51
2021/12/27 02:15:32;;;;;;;4.97;4.53;;;;;;;5.50;100.00;95206.50;5135080;27;20423;-51
2021/12/27 02:18:00;;;;;;;3.37;3.13;;;;;;;5.43;100.00;95176.97;5135707;27;20502;-51
2021/12/27 02:20:32;;;;;;;1.87;1.87;;;;;;;5.58;100.00;95195.59;5135635;27;20502;-51
2021/12/27 02:23:07;;;;;;;3.90;2.60;;;;;;;5.71;100.00;95195.25;5135174;27;20506;-51
2021/12/27 02:25:36;;;;;;;2.23;2.13;;;;;;;5.75;100.00;95198.19;5135274;27;20410;-51
2021/12/27 02:28:08;;;;;;;3.30;3.20;;;;;;;5.85;100.00;95200.19;5135160;27;20518;-51
2021/12/27 02:30:37;;;;;;;1.50;1.50;;;;;;;5.86;100.00;95192.06;5135477;27;20427;-51
2021/12/27 02:33:07;;;;;;;1.63;1.00;;;;;;;5.89;100.00;95193.44;5135133;27;20457;-51
2021/12/27 02:35:39;;;;;;;3.03;2.83;;;;;;;5.82;100.00;95198.81;5135471;27;20458;-51
2021/12/27 02:38:10;;;;;;;4.83;4.63;;;;;;;5.26;100.00;95128.09;5135034;27;20919;-51
2021/12/27 02:40:40;;;;;;;4.70;4.33;;;;;;;5.37;100.00;95192.88;5134966;27;20751;-51
2021/12/27 02:43:11;;;;;;;3.80;3.20;;;;;;;5.49;100.00;95151.56;5134860;27;21077;-51
2021/12/27 02:45:41;;;;;;;3.47;3.23;;;;;;;5.69;100.00;95191.28;5135242;27;20522;-51
2021/12/27 02:48:11;;;;;;;3.23;3.13;;;;;;;5.70;100.00;95190.22;5134819;27;20517;-51
2021/12/27 02:50:43;;;;;;;3.23;3.00;;;;;;;5.79;100.00;95196.69;5134654;27;20435;-51
2021/12/27 02:53:13;;;;;;;4.57;4.20;;;;;;;5.89;100.00;95201.31;5134508;27;20467;-51
2021/12/27 02:55:42;;;;;;;4.20;3.53;;;;;;;5.95;100.00;95200.31;5134566;27;20472;-51
2021/12/27 02:58:11;;;;;;;2.73;2.63;;;;;;;6.01;100.00;95194.09;5134594;27;21009;-51
2021/12/27 03:00:52;;;;;;;4.27;4.07;;;;;;;5.86;100.00;95199.16;5134606;27;20465;-51
2021/12/27 03:03:21;;;;;;;4.30;3.93;;;;;;;4.85;100.00;95137.16;5134486;27;20510;-51
2021/12/27 03:05:52;;;;;;;11.33;7.37;;;;;;;5.13;100.00;95193.03;5134796;27;20506;-51
2021/12/27 03:08:23;;;;;;;2.77;2.60;;;;;;;5.38;100.00;95189.22;5134389;27;20505;-51
2021/12/27 03:10:53;;;;;;;4.83;4.53;;;;;;;5.55;100.00;95190.00;5134317;27;20498;-51
2021/12/27 03:13:24;;;;;;;1.63;1.50;;;;;;;5.57;100.00;95156.38;5133593;27;20839;-51
2021/12/27 03:15:53;;;;;;;5.50;5.30;;;;;;;5.40;100.00;95185.31;5134597;27;20494;-51
2021/12/27 03:18:22;;;;;;;6.90;6.70;;;;;;;5.00;100.00;95189.94;5134177;27;20808;-51
2021/12/27 03:20:53;;;;;;;5.83;5.30;;;;;;;5.06;100.00;95197.66;5133290;27;20442;-51
2021/12/27 03:23:22;;;;;;;1.63;1.63;;;;;;;5.34;100.00;95204.66;5134033;27;20490;-51
2021/12/27 03:25:50;;;;;;;2.90;2.70;;;;;;;5.25;100.00;95202.69;5133992;27;20509;-51
2021/12/27 03:28:19;;;;;;;5.77;5.57;;;;;;;4.88;100.00;95194.47;5134609;27;20419;-51
2021/12/27 03:30:47;;;;;;;2.30;2.30;;;;;;;5.06;100.00;95207.34;5133931;27;21009;-51
2021/12/27 03:33:17;;;;;;;3.90;3.80;;;;;;;4.84;100.00;95188.88;5133949;27;20990;-51
2021/12/27 03:35:58;;;;;;;9.03;3.70;;;;;;;4.82;100.00;95219.03;5133822;27;20887;-51
2021/12/27 03:38:30;;;;;;;4.53;3.53;;;;;;;5.08;100.00;95200.84;5133869;27;20426;-51
2021/12/27 03:40:58;;;;;;;7.10;5.90;;;;;;;5.04;100.00;95197.09;5133751;27;20526;-51
2021/12/27 03:43:27;;;;;;;7.87;7.27;;;;;;;4.84;100.00;95188.88;5133950;27;20557;-51
2021/12/27 03:45:55;;;;;;;5.17;4.77;;;;;;;4.94;100.00;95204.00;5133512;27;20462;-51
2021/12/27 03:48:24;;;;;;;2.10;2.00;;;;;;;4.66;100.00;95143.66;5133874;27;20786;-51
2021/12/27 03:50:53;;;;;;;1.37;1.37;;;;;;;5.12;100.00;95191.47;5133609;27;20516;-51
2021/12/27 03:53:22;;;;;;;2.63;2.57;;;;;;;4.65;100.00;95140.25;5133857;27;20510;-51
2021/12/27 03:55:52;;;;;;;7.73;7.23;;;;;;;4.89;100.00;95186.34;5133888;27;20458;-51
2021/12/27 03:58:27;;;;;;;3.33;3.13;;;;;;;5.26;100.00;95193.78;5133412;27;20419;-51
2021/12/27 04:01:14;;;;;;;4.10;3.70;;;;;;;5.23;100.00;95195.06;5132537;27;20552;-51
2021/12/27 04:03:44;;;;;;;3.07;2.97;;;;;;;5.03;100.00;95198.13;5133405;27;20494;-51
2021/12/27 04:06:14;;;;;;;1.30;1.30;;;;;;;5.09;100.00;95197.19;5133241;27;20461;-51
2021/12/27 04:08:42;;;;;;;0.77;0.77;;;;;;;4.56;100.00;95178.38;5133170;27;20474;-51
2021/12/27 04:11:13;;;;;;;3.27;3.07;;;;;;;5.02;100.00;95196.53;5133269;27;20419;-51
2021/12/27 04:13:43;;;;;;;3.43;3.33;;;;;;;5.08;100.00;95198.19;5133138;27;20458;-51
2021/12/27 04:16:12;;;;;;;4.00;3.80;;;;;;;3.82;100.00;94996.59;5133213;27;20450;-51
2021/12/27 04:18:40;;;;;;;4.40;3.83;;;;;;;4.92;100.00;95169.31;5133091;27;20433;-51
2021/12/27 04:21:09;;;;;;;1.63;1.53;;;;;;;4.81;100.00;95138.66;5133168;27;20458;-51
2021/12/27 04:23:37;;;;;;;1.13;1.13;;;;;;;5.03;100.00;95198.13;5133263;27;20462;-51
2021/12/27 04:26:06;;;;;;;1.37;1.37;;;;;;;4.62;100.00;95185.34;5133354;27;20502;-51
2021/12/27 04:28:36;;;;;;;7.17;5.83;;;;;;;4.88;100.00;95192.59;5133316;27;20873;-51
2021/12/27 04:31:04;;;;;;;4.43;2.73;;;;;;;4.74;100.00;95196.56;5133204;27;20418;-51
2021/12/27 04:33:33;;;;;;;3.10;3.00;;;;;;;4.85;100.00;95177.34;5132939;27;20418;-51
2021/12/27 04:36:01;;;;;;;4.50;4.13;;;;;;;5.34;100.00;95196.00;5133173;27;20429;-51
2021/12/27 04:38:30;;;;;;;5.13;2.60;;;;;;;5.34;100.00;95180.25;5132904;27;20949;-51
2021/12/27 04:40:58;;;;;;;2.93;1.10;;;;;;;4.74;100.00;95148.50;5132901;27;20475;-52
2021/12/27 04:43:27;;;;;;;1.03;1.03;;;;;;;4.70;100.00;95135.09;5133067;27;20553;-51
2021/12/27 04:45:56;;;;;;;4.90;3.57;;;;;;;4.90;100.00;95205.53;5133133;28;20439;-51
2021/12/27 04:48:26;;;;;;;1.77;1.47;;;;;;;4.76;100.00;95197.13;5131803;28;20434;-52
2021/12/27 04:50:55;;;;;;;2.77;2.67;;;;;;;4.83;100.00;95168.13;5132858;28;20856;-51
2021/12/27 04:53:24;;;;;;;5.17;3.10;;;;;;;4.66;100.00;95120.03;5132708;28;20435;-51
2021/12/27 04:55:52;;;;;;;6.13;1.33;;;;;;;5.08;100.00;95173.78;5132730;27;20514;-51
2021/12/27 04:58:22;;;;;;;2.60;1.50;;;;;;;5.12;100.00;95165.19;5132998;27;21009;-51
2021/12/27 05:00:53;;;;;;;1.87;1.73;;;;;;;5.38;100.00;95194.50;5132565;28;20527;-51
2021/12/27 05:03:23;;;;;;;1.37;1.30;;;;;;;5.29;100.00;95175.69;5132828;28;20478;-51
2021/12/27 05:05:51;;;;;;;0.93;0.93;;;;;;;5.08;100.00;95139.63;5132712;28;20418;-51
2021/12/27 05:08:20;;;;;;;3.03;0.90;;;;;;;4.28;100.00;95013.91;5132507;28;20419;-51
2021/12/27 05:10:49;;;;;;;1.03;1.03;;;;;;;5.38;100.00;95176.09;5132295;28;20505;-51
2021/12/27 05:13:18;;;;;;;1.77;1.70;;;;;;;5.49;100.00;95204.13;5132852;27;20517;-51
2021/12/27 05:15:48;;;;;;;2.90;1.93;;;;;;;5.09;100.00;95178.78;5132887;28;20803;-51
2021/12/27 05:18:16;;;;;;;5.97;5.67;;;;;;;4.91;100.00;95180.84;5132437;28;20463;-52
2021/12/27 05:20:46;;;;;;;3.50;3.30;;;;;;;5.42;100.00;95201.66;5132589;27;20415;-52
2021/12/27 05:23:14;;;;;;;1.43;1.43;;;;;;;5.41;100.00;95163.28;5132356;28;20518;-52
2021/12/27 05:25:43;;;;;;;1.80;1.33;;;;;;;5.63;100.00;95181.72;5132747;28;20442;-51
2021/12/27 05:28:11;;;;;;;2.37;2.27;;;;;;;5.31;100.00;95163.13;5132156;28;21009;-51
2021/12/27 05:30:41;;;;;;;1.90;1.53;;;;;;;5.74;100.00;95189.50;5132519;27;20419;-52
2021/12/27 05:33:10;;;;;;;0.67;0.67;;;;;;;5.63;100.00;95181.72;5132461;27;20465;-52
2021/12/27 05:35:38;;;;;;;0.80;0.80;;;;;;;5.72;100.00;95178.44;5133436;27;20469;-51
2021/12/27 05:38:09;;;;;;;1.47;1.40;;;;;;;5.82;100.00;95190.91;5136697;27;20422;-52
2021/12/27 05:40:37;;;;;;;1.73;1.73;;;;;;;5.19;100.00;95111.69;5136532;27;20970;-52
2021/12/27 05:43:07;;;;;;;1.60;1.50;;;;;;;4.71;100.00;95013.28;5136247;27;20418;-52
2021/12/27 05:45:37;;;;;;;2.87;2.77;;;;;;;5.36;100.00;95183.44;5136136;27;20460;-52
2021/12/27 05:48:07;;;;;;;3.60;3.50;;;;;;;4.61;100.00;95105.00;5135580;27;20494;-52
2021/12/27 05:50:37;;;;;;;1.70;1.63;;;;;;;4.99;100.00;95133.97;5135985;27;20423;-52
2021/12/27 05:53:05;;;;;;;5.30;4.93;;;;;;;5.19;100.00;95199.16;5135992;27;20452;-52
2021/12/27 05:55:35;;;;;;;3.83;2.83;;;;;;;5.34;100.00;95193.38;5136269;27;20509;-52
2021/12/27 05:58:05;;;;;;;3.73;2.60;;;;;;;4.13;100.00;94981.38;5135884;27;20505;-52
2021/12/27 06:00:33;;;;;;;1.30;1.20;;;;;;;5.48;100.00;95192.00;5134767;27;20553;-52
2021/12/27 06:03:03;;;;;;;2.73;2.27;;;;;;;5.24;100.00;95124.91;5136115;27;20430;-51
2021/12/27 06:05:31;;;;;;;1.87;1.83;;;;;;;5.71;100.00;95170.78;5134868;27;20565;-53
2021/12/27 06:08:01;;;;;;;1.17;1.17;;;;;;;5.65;100.00;95188.31;5135861;27;20949;-52
2021/12/27 06:10:29;;;;;;;1.00;1.00;;;;;;;5.38;100.00;95183.97;5135698;27;20466;-51
2021/12/27 06:12:59;;;;;;;1.90;1.90;;;;;;;5.81;100.00;95199.88;5135554;27;20435;-52
2021/12/27 06:15:28;;;;;;;1.30;0.90;;;;;;;5.71;100.00;95165.53;5135384;27;20466;-53
2021/12/27 06:17:56;;;;;;;1.97;1.87;;;;;;;4.72;100.00;95017.50;5135453;27;20930;-51
2021/12/27 06:20:25;;;;;;;2.90;2.77;;;;;;;5.57;100.00;95196.63;5135404;27;20422;-51
2021/12/27 06:22:56;;;;;;;7.30;3.97;;;;;;;5.67;100.00;95195.97;5135715;27;20864;-52
2021/12/27 06:25:24;;;;;;;2.70;2.60;;;;;;;5.77;100.00;95194.28;5135200;27;20512;-52
2021/12/27 06:27:53;;;;;;;4.23;4.03;;;;;;;5.61;100.00;95176.72;5135681;27;20415;-52
2021/12/27 06:30:23;;;;;;;5.63;4.63;;;;;;;5.59;100.00;95193.75;5134504;27;20431;-51
2021/12/27 06:32:51;;;;;;;2.50;2.40;;;;;;;5.73;100.00;95198.44;5135446;27;20453;-51
2021/12/27 06:35:21;;;;;;;5.30;4.90;;;;;;;5.31;100.00;95167.59;5135148;27;20438;-53
2021/12/27 06:37:49;;;;;;;13.27;12.17;;;;;;;5.18;100.00;95117.97;5135093;27;20458;-50
2021/12/27 06:40:18;;;;;;;5.50;2.20;;;;;;;5.85;100.00;95151.03;5135026;27;20455;-52
2021/12/27 06:42:47;;;;;;;2.90;2.80;;;;;;;6.24;100.00;95176.25;5134936;27;20510;-52
2021/12/27 06:45:16;;;;;;;14.53;7.23;;;;;;;6.09;100.00;95180.53;5134481;27;20553;-52
2021/12/27 06:47:46;;;;;;;9.57;8.70;;;;;;;6.23;100.00;95187.00;5133726;27;20780;-51
2021/12/27 06:50:14;;;;;;;5.00;4.70;;;;;;;6.40;100.00;95175.38;5133948;27;20505;-51
2021/12/27 06:52:44;;;;;;;6.17;5.63;;;;;;;6.62;100.00;95188.53;5135126;27;20458;-51
2021/12/27 06:55:13;;;;;;;15.37;7.30;;;;;;;6.45;100.00;95190.44;5134699;27;20415;-52
2021/12/27 06:57:42;;;;;;;6.87;6.57;;;;;;;6.52;100.00;95169.19;5135033;27;20990;-51
2021/12/27 07:00:13;;;;;;;10.90;9.43;;;;;;;6.20;100.00;95176.97;5134452;27;20570;-51
2021/12/27 07:02:42;;;;;;;11.47;9.70;;;;;;;6.51;100.00;95188.66;5134558;27;20462;-51
2021/12/27 07:05:13;;;;;;;7.47;6.77;;;;;;;6.26;100.00;95192.59;5134864;27;20470;-52
2021/12/27 07:07:42;;;;;;;12.40;5.47;;;;;;;6.38;100.00;95198.53;5134910;27;20450;-52
2021/12/27 07:10:16;;;;;;;5.13;4.73;;;;;;;6.41;100.00;95186.69;5134589;27;20491;-51
2021/12/27 07:12:45;;;;;;;13.60;4.60;;;;;;;6.82;100.00;95193.22;5134286;27;20959;-52
2021/12/27 07:15:13;;;;;;;12.77;6.40;;;;;;;6.93;100.00;95176.47;5134054;27;20426;-52
2021/12/27 07:17:42;;;;;;;5.20;2.20;;;;;;;7.18;100.00;95179.31;5134629;27;20446;-51
2021/12/27 07:20:13;;;;;;;3.50;3.17;;;;;;;7.08;100.00;95187.16;5134507;27;20418;-53
2021/12/27 07:22:41;;;;;;;5.07;4.67;;;;;;;6.97;100.00;95194.16;5134327;27;20533;-52
2021/12/27 07:25:10;;;;;;;4.73;4.40;;;;;;;7.08;100.00;95188.97;5134064;27;20462;-51
2021/12/27 07:27:38;;;;;;;1.83;1.73;;;;;;;7.25;100.00;95192.28;5134487;27;20501;-51
2021/12/27 07:30:11;;;;;;;3.17;3.07;;;;;;;7.15;100.00;95179.03;5134105;27;20454;-52
2021/12/27 07:32:39;;;;;;;7.57;6.63;;;;;;;7.20;100.00;95186.97;5134138;27;20510;-50
2021/12/27 07:35:09;;;;;;;12.93;4.27;;;;;;;7.14;100.00;95177.41;5134286;27;20514;-52
2021/12/27 07:37:41;;;;;;;6.30;2.70;;;;;;;7.39;100.00;95185.53;5134085;27;20874;-52
2021/12/27 07:40:12;;;;;;;4.57;4.27;;;;;;;7.56;100.00;95186.97;5134235;27;20430;-51
2021/12/27 07:42:41;;;;;;;14.77;10.43;;;;;;;7.43;100.00;95200.63;5134163;27;20435;-52
2021/12/27 07:45:10;;;;;;;7.17;4.97;;;;;;;7.38;100.00;95182.13;5133812;27;20462;-51
2021/12/27 07:47:39;;;;;;;10.40;8.50;;;;;;;7.72;100.00;95173.88;5134140;27;20426;-51
2021/12/27 07:50:08;;;;;;;6.60;6.40;;;;;;;6.83;100.00;95061.25;5134018;27;20423;-51
2021/12/27 07:52:37;;;;;;;5.33;5.23;;;;;;;7.67;100.00;95186.00;5133806;27;20454;-51
2021/12/27 07:55:08;;;;;;;8.03;5.70;;;;;;;8.07;100.00;95166.97;5134314;27;20988;-51
2021/12/27 07:57:36;;;;;;;9.57;8.67;;;;;;;8.39;100.00;95174.00;5133749;27;20434;-51
2021/12/27 08:00:07;;;;;;;18.67;11.90;;;;;;;8.67;100.00;95169.09;5133048;27;20474;-51
2021/12/27 08:02:36;;;;;;;21.27;12.93;;;;;;;8.29;100.00;95174.78;5133480;27;20439;-51
2021/12/27 08:05:05;;;;;;;17.17;14.57;;;;;;;8.20;100.00;95165.72;5133472;27;20483;-50
2021/12/27 08:07:33;;;;;;;7.97;7.47;;;;;;;8.63;100.00;95196.28;5133316;27;20475;-51
2021/12/27 08:10:02;;;;;;;16.80;11.30;;;;;;;8.48;100.00;95191.72;5133331;27;20466;-50
2021/12/27 08:12:32;;;;;;;12.83;11.60;;;;;;;8.26;100.00;95181.38;5133621;27;20462;-50
2021/12/27 08:15:01;;;;;;;17.03;12.47;;;;;;;8.21;100.00;95177.88;5133469;27;20518;-50
2021/12/27 08:17:29;;;;;;;15.97;14.33;;;;;;;8.12;100.00;95174.91;5133164;27;20466;-50
2021/12/27 08:19:57;;;;;;;11.70;10.80;;;;;;;8.17;100.00;95081.78;5132673;27;20419;-50
2021/12/27 08:22:26;;;;;;;13.87;12.77;;;;;;;8.89;100.00;95185.53;5132618;27;20534;-50
2021/12/27 08:24:55;;;;;;;11.63;9.53;;;;;;;8.77;100.00;95184.97;5131071;27;20985;-50
2021/12/27 08:27:25;;;;;;;10.93;9.80;;;;;;;8.33;100.00;95186.41;5132305;27;20979;-50
2021/12/27 08:29:55;;;;;;;9.47;8.87;;;;;;;8.55;100.00;95183.59;5131906;27;20470;-52
2021/12/27 08:32:24;;;;;;;17.00;10.37;;;;;;;8.79;100.00;95172.28;5132388;27;20839;-51
2021/12/27 08:34:52;;;;;;;4.83;4.53;;;;;;;9.18;100.00;95155.97;5133407;27;20513;-51
2021/12/27 08:37:20;;;;;;;4.47;4.17;;;;;;;9.42;100.00;95164.94;5132632;27;20454;-50
2021/12/27 08:39:49;;;;;;;9.07;6.67;;;;;;;9.36;100.00;95176.59;5132881;27;20446;-50
2021/12/27 08:42:22;;;;;;;6.47;6.10;;;;;;;9.28;100.00;95154.13;5132966;27;20423;-50
2021/12/27 08:44:51;;;;;;;4.83;4.43;;;;;;;9.22;100.00;95178.97;5132840;27;20545;-50
2021/12/27 08:47:21;;;;;;;7.97;7.50;;;;;;;8.97;100.00;95172.84;5133015;28;20415;-51
2021/12/27 08:49:50;;;;;;;5.60;4.77;;;;;;;8.97;100.00;95180.78;5133140;28;20447;-50
2021/12/27 08:52:32;;;;;;;2.70;2.07;;;;;;;9.29;100.00;95168.09;5133078;27;20411;-51
2021/12/27 08:55:02;;;;;;;10.83;8.63;;;;;;;8.94;100.00;95171.50;5133142;27;20426;-51
2021/12/27 08:57:31;;;;;;;8.43;7.67;;;;;;;9.31;100.00;95158.84;5133080;28;20426;-50
2021/12/27 09:00:00;;;;;;;7.47;5.73;;;;;;;9.09;100.00;95121.31;5132543;28;20474;-50
2021/12/27 09:02:30;;;;;;;8.93;8.43;;;;;;;9.26;100.00;95158.84;5132703;28;20526;-50
2021/12/27 09:04:58;;;;;;;5.60;5.23;;;;;;;9.14;100.00;95158.31;5133062;27;20411;-49
2021/12/27 09:07:27;;;;;;;4.10;4.00;;;;;;;9.03;100.00;95164.69;5132718;28;20461;-50
2021/12/27 09:09:55;;;;;;;10.23;6.80;;;;;;;8.80;100.00;95165.94;5132922;27;20427;-50
2021/12/27 09:12:24;;;;;;;8.00;4.80;;;;;;;8.82;100.00;95142.72;5137178;27;20506;-50
2021/12/27 09:14:53;;;;;;;8.73;6.63;;;;;;;8.74;100.00;95158.28;5137121;27;20426;-50
2021/12/27 09:17:21;;;;;;;7.27;6.67;;;;;;;8.72;100.00;95147.97;5136865;27;20431;-49
2021/12/27 09:19:51;;;;;;;7.07;6.53;;;;;;;8.91;100.00;95156.97;5136624;27;20416;-53
2021/12/27 09:22:19;;;;;;;6.93;6.10;;;;;;;8.95;100.00;95150.09;5136529;27;20518;-50
2021/12/27 09:24:48;;;;;;;3.50;3.27;;;;;;;9.03;100.00;95132.94;5136687;27;20418;-50
2021/12/27 09:27:16;;;;;;;9.80;7.27;;;;;;;9.00;100.00;95144.06;5136424;27;20473;-50
2021/12/27 09:29:45;;;;;;;8.73;8.03;;;;;;;8.45;100.00;95128.88;5136257;27;20418;-50
2021/12/27 09:32:14;;;;;;;8.60;6.83;;;;;;;9.30;100.00;95137.97;5136408;27;20514;-51
2021/12/27 09:34:44;;;;;;;3.30;3.10;;;;;;;8.73;100.00;95048.34;5136687;27;20422;-50
2021/12/27 09:37:13;;;;;;;6.77;6.20;;;;;;;9.00;100.00;95132.69;5136600;27;20430;-50
2021/12/27 09:39:42;;;;;;;8.80;6.13;;;;;;;8.32;100.00;95074.69;5136207;27;20467;-51
2021/12/27 09:42:10;;;;;;;11.97;7.13;;;;;;;8.54;100.00;95129.16;5136220;27;20484;-50
2021/12/27 09:44:39;;;;;;;8.23;6.80;;;;;;;8.23;100.00;95065.69;5136494;27;20896;-50
2021/12/27 09:47:07;;;;;;;6.43;5.93;;;;;;;9.17;100.00;95112.06;5136102;27;21031;-50
2021/12/27 09:49:35;;;;;;;6.27;5.80;;;;;;;9.33;100.00;95116.28;5135960;27;20423;-50
2021/12/27 09:52:05;;;;;;;2.30;2.20;;;;;;;9.10;100.00;95106.25;5136238;27;20501;-50
2021/12/27 09:54:35;;;;;;;2.80;2.70;;;;;;;9.14;100.00;95100.16;5135890;27;20479;-50
2021/12/27 09:57:03;;;;;;;4.27;3.87;;;;;;;9.71;100.00;95105.13;5135829;27;20975;-50
2021/12/27 09:59:32;;;;;;;19.13;6.93;;;;;;;9.07;100.00;95069.75;5135833;27;20418;-50
2021/12/27 10:02:01;;;;;;;7.60;4.30;;;;;;;9.34;100.00;95099.34;5135711;27;20869;-50
2021/12/27 10:04:29;;;;;;;17.63;7.53;;;;;;;8.63;100.00;94935.53;5136160;27;20433;-50
2021/12/27 10:06:58;;;;;;;5.17;4.33;;;;;;;9.54;100.00;95092.19;5135621;27;20506;-50
2021/12/27 10:09:27;;;;;;;4.83;4.43;;;;;;;9.88;100.00;95079.13;5135630;27;20483;-50
2021/12/27 10:11:57;;;;;;;5.33;4.57;;;;;;;10.19;100.00;95088.53;5135853;27;20458;-50
2021/12/27 10:14:25;;;;;;;10.30;7.73;;;;;;;10.05;100.00;95074.28;5135543;27;20974;-50
2021/12/27 10:17:05;;;;;;;9.70;5.57;;;;;;;10.06;100.00;95075.09;5135410;27;20461;-49
2021/12/27 10:19:34;;;;;;;5.77;5.20;;;;;;;10.17;100.00;95069.50;5135616;27;20482;-50
2021/12/27 10:22:10;;;;;;;9.53;5.10;;;;;;;10.46;100.00;95066.16;5135188;27;20518;-50
2021/12/27 10:24:39;;;;;;;8.60;7.97;;;;;;;10.43;100.00;95061.41;5135688;27;20462;-49
2021/12/27 10:27:09;;;;;;;6.10;5.90;;;;;;;10.29;100.00;95065.75;5134868;27;20569;-50
2021/12/27 10:29:40;;;;;;;2.17;2.07;;;;;;;10.64;100.00;95063.69;5135123;27;20969;-49
2021/12/27 10:32:11;;;;;;;9.20;5.37;;;;;;;10.39;100.00;95057.75;5135259;27;20418;-50
2021/12/27 10:34:46;;;;;;;3.90;3.57;;;;;;;10.23;100.00;95061.53;5134706;27;20430;-50
2021/12/27 10:37:18;;;;;;;8.17;5.67;;;;;;;10.23;100.00;95059.66;5135172;27;20458;-51
2021/12/27 10:39:54;;;;;;;7.33;6.73;;;;;;;10.12;100.00;95052.81;5135363;27;20784;-50
2021/12/27 10:42:27;;;;;;;7.67;7.07;;;;;;;10.05;100.00;95049.66;5135391;27;20453;-50
2021/12/27 10:44:58;;;;;;;5.37;4.97;;;;;;;10.24;100.00;95048.03;5134529;27;20506;-49
2021/12/27 10:47:33;;;;;;;8.63;7.53;;;;;;;9.48;100.00;94925.81;5134855;27;20462;-49
2021/12/27 10:50:05;;;;;;;12.50;11.03;;;;;;;10.26;100.00;95029.19;5134602;27;20509;-49
2021/12/27 10:52:48;;;;;;;14.90;6.53;;;;;;;10.50;100.00;95011.59;5134349;27;20962;-49
2021/12/27 10:55:19;;;;;;;5.43;5.13;;;;;;;10.36;100.00;95018.53;5134620;27;20459;-50
2021/12/27 10:57:48;;;;;;;9.27;8.47;;;;;;;10.48;100.00;95011.03;5134707;27;20923;-50
2021/12/27 11:00:29;;;;;;;8.23;7.63;;;;;;;10.84;100.00;94994.59;5134556;27;20470;-49
2021/12/27 11:03:02;;;;;;;10.50;7.20;;;;;;;10.95;100.00;94982.06;5134782;27;20503;-49
2021/12/27 11:05:32;;;;;;;12.00;10.07;;;;;;;10.75;100.00;94996.25;5134337;27;20435;-49
2021/12/27 11:08:05;;;;;;;16.17;7.27;;;;;;;11.28;100.00;94983.06;5134417;27;20505;-49
2021/12/27 11:10:36;;;;;;;11.37;9.47;;;;;;;11.72;100.00;94990.81;5134207;27;20442;-49
2021/12/27 11:13:06;;;;;;;23.17;9.57;;;;;;;11.34;100.00;94934.97;5134234;27;20473;-50
2021/12/27 11:15:39;;;;;;;10.90;9.87;;;;;;;11.95;100.00;94980.19;5134334;27;20410;-49
2021/12/27 11:18:08;;;;;;;10.83;10.03;;;;;;;11.86;100.00;94930.66;5134421;27;20441;-49
2021/12/27 11:20:37;;;;;;;28.70;17.70;;;;;;;11.88;100.00;94978.94;5134311;27;20454;-49
2021/12/27 11:23:06;;;;;;;32.77;19.27;;;;;;;11.61;100.00;94981.38;5134139;27;20958;-49
2021/12/27 11:25:37;;;;;;;47.53;14.50;;;;;;;10.95;100.00;94978.59;5134253;27;20510;-49
2021/12/27 11:28:24;;;;;;;24.67;10.13;;;;;;;10.96;100.00;94977.53;5134016;27;20840;-50
2021/12/27 11:30:54;;;;;;;21.30;11.33;;;;;;;10.76;100.00;94907.72;5134282;27;20502;-50
2021/12/27 11:33:22;;;;;;;11.07;7.53;;;;;;;11.46;100.00;94971.69;5133631;27;20431;-50
2021/12/27 11:36:09;;;;;;;7.53;6.23;;;;;;;11.75;100.00;94951.22;5134172;27;20423;-50
2021/12/27 11:38:41;;;;;;;8.40;5.23;;;;;;;11.76;100.00;94962.63;5134177;27;20895;-50
2021/12/27 11:41:28;;;;;;;13.00;4.90;;;;;;;10.32;100.00;94801.13;5134152;27;20447;-50